Ellicott, Colorado
Current Conditions -  °F | °C
As of 9:53 PM on Friday 24 Oct 2014 (Local Time) from KFLY Reporting Station
Clear Clear  
Wind Chill: 51°   Ceiling: Unl
Heat Index: 51°   Visibility: 10mi
Dew Point: 24°   Wind: 9mph
Humidity: 36%   Direction: 270°W
Pressure: 30.32"   Gusts: NA
Location:  39.0026°N, 104.316°W
Report Text: KFLY 250353Z AUTO 27008KT 10SM CLR 11/M04 A3032 RMK AO2 T01051042
Loading
Personal Weather Stations






























Interactive Weather Map
Tropical Storm Tracking
New forecast layout! Learn more

10-Day Weather Forecast

Advertisements
Track Severe Weather on mobile